createdAt,value
2022-12-31T00:00:21.995Z,22.77
2022-12-31T00:02:49.448Z,27.25
2022-12-31T00:05:16.583Z,21.55
2022-12-31T00:10:09.993Z,20.33
2022-12-31T00:12:37.022Z,23.60
2022-12-31T00:15:04.388Z,26.42
2022-12-31T00:17:31.716Z,22.65
2022-12-31T00:19:58.694Z,21.87
2022-12-31T00:22:25.696Z,22.58
2022-12-31T00:24:52.970Z,20.98
2022-12-31T00:27:22.323Z,23.92
2022-12-31T00:29:49.343Z,22.48
2022-12-31T00:32:16.638Z,22.33
2022-12-31T00:34:43.758Z,22.70
2022-12-31T00:37:10.751Z,24.83
2022-12-31T00:39:38.019Z,20.62
2022-12-31T00:42:05.237Z,21.62
2022-12-31T00:44:32.238Z,18.87
2022-12-31T00:46:59.543Z,19.67
2022-12-31T00:49:26.531Z,21.98
2022-12-31T00:51:53.537Z,23.73
2022-12-31T00:54:20.826Z,23.73
2022-12-31T00:56:47.888Z,19.58
2022-12-31T00:59:14.880Z,22.37
2022-12-31T01:01:42.963Z,21.83
2022-12-31T01:04:13.607Z,21.62
2022-12-31T01:06:58.858Z,21.87
2022-12-31T01:09:26.119Z,22.27
2022-12-31T01:11:53.160Z,19.77
2022-12-31T01:14:20.653Z,23.42
2022-12-31T01:16:51.028Z,23.05
2022-12-31T01:19:29.054Z,22.67
2022-12-31T01:21:56.887Z,21.62
2022-12-31T01:24:24.261Z,20.05
2022-12-31T01:26:51.799Z,21.48
2022-12-31T01:29:19.348Z,18.02
2022-12-31T01:31:46.567Z,18.67
2022-12-31T01:34:13.589Z,21.62
2022-12-31T01:36:40.908Z,20.15
2022-12-31T01:39:09.283Z,21.45
2022-12-31T01:41:39.229Z,19.27
2022-12-31T01:44:12.304Z,17.15
2022-12-31T01:47:00.851Z,20.65
2022-12-31T01:49:41.383Z,18.33
2022-12-31T01:52:16.302Z,17.00
2022-12-31T01:54:47.947Z,22.30
2022-12-31T01:57:15.929Z,21.75
2022-12-31T01:59:44.148Z,18.20
2022-12-31T02:02:12.769Z,16.98
2022-12-31T02:04:40.215Z,17.27
2022-12-31T02:07:08.627Z,18.60
2022-12-31T02:09:38.394Z,16.23
2022-12-31T02:12:06.768Z,18.80
2022-12-31T02:14:40.466Z,16.70
2022-12-31T02:17:29.489Z,17.30
2022-12-31T02:20:11.747Z,18.08
2022-12-31T02:22:38.980Z,19.25
2022-12-31T02:25:24.928Z,17.60
2022-12-31T02:28:04.195Z,17.67
2022-12-31T02:30:32.655Z,18.12
2022-12-31T02:33:38.688Z,17.83
2022-12-31T02:36:10.686Z,15.85
2022-12-31T02:38:41.634Z,17.90
2022-12-31T02:41:33.668Z,15.85
2022-12-31T02:44:01.058Z,17.73
2022-12-31T02:46:42.235Z,18.17
2022-12-31T02:49:19.169Z,18.98
2022-12-31T02:51:53.469Z,18.83
2022-12-31T02:55:03.625Z,18.65
2022-12-31T02:57:49.771Z,15.07
2022-12-31T03:00:36.230Z,17.08
2022-12-31T03:03:04.275Z,16.65
2022-12-31T03:05:34.906Z,16.45
2022-12-31T03:08:02.024Z,17.33
2022-12-31T03:10:29.207Z,18.60
2022-12-31T03:12:57.401Z,18.67
2022-12-31T03:15:28.615Z,16.92
2022-12-31T03:18:09.499Z,18.80
2022-12-31T03:21:04.070Z,20.00
2022-12-31T03:23:35.608Z,17.73
2022-12-31T03:26:11.067Z,19.17
2022-12-31T03:28:43.188Z,23.33
2022-12-31T03:31:11.452Z,16.87
2022-12-31T03:33:41.133Z,18.23
2022-12-31T03:36:13.648Z,20.62
2022-12-31T03:38:41.495Z,17.98
2022-12-31T03:41:10.848Z,17.65
2022-12-31T03:43:38.300Z,18.08
2022-12-31T03:46:05.791Z,19.83
2022-12-31T03:48:32.988Z,17.10
2022-12-31T03:51:00.065Z,17.17
2022-12-31T03:53:27.524Z,17.70
2022-12-31T03:55:55.271Z,18.83
2022-12-31T03:58:22.920Z,18.12
2022-12-31T04:00:50.766Z,19.80
2022-12-31T04:03:18.358Z,18.90
2022-12-31T04:05:45.505Z,18.12
2022-12-31T04:08:12.675Z,20.88
2022-12-31T04:10:40.071Z,18.80
2022-12-31T04:13:07.156Z,17.70
2022-12-31T04:15:34.258Z,20.50
2022-12-31T04:18:01.574Z,18.02
2022-12-31T04:20:28.644Z,18.92
2022-12-31T04:22:55.722Z,16.87
2022-12-31T04:25:23.084Z,16.87
2022-12-31T04:27:51.113Z,20.02
2022-12-31T04:30:18.226Z,19.35
2022-12-31T04:32:45.582Z,18.90
2022-12-31T04:35:12.687Z,16.85
2022-12-31T04:37:40.505Z,16.40
2022-12-31T04:40:08.777Z,19.83
2022-12-31T04:42:36.183Z,18.60
2022-12-31T04:45:04.081Z,18.75
2022-12-31T04:47:31.483Z,15.95
2022-12-31T04:49:58.813Z,19.05
2022-12-31T04:52:25.912Z,18.55
2022-12-31T04:54:53.261Z,17.90
2022-12-31T04:57:20.310Z,17.80
2022-12-31T04:59:47.684Z,19.58
2022-12-31T05:02:15.305Z,20.10
2022-12-31T05:04:43.702Z,17.50
2022-12-31T05:07:10.771Z,19.42
2022-12-31T05:09:38.134Z,19.73
2022-12-31T05:12:05.568Z,18.25
2022-12-31T05:14:32.644Z,18.98
2022-12-31T05:17:01.107Z,18.95
2022-12-31T05:19:28.293Z,18.62
2022-12-31T05:22:13.852Z,22.05
2022-12-31T05:24:41.247Z,22.60
2022-12-31T05:27:08.313Z,20.45
2022-12-31T05:29:35.396Z,18.75
2022-12-31T05:32:02.998Z,19.42
2022-12-31T05:34:30.064Z,22.60
2022-12-31T05:36:57.099Z,23.77
2022-12-31T05:39:24.438Z,22.45
2022-12-31T05:41:51.692Z,20.45
2022-12-31T05:44:18.936Z,22.35
2022-12-31T05:46:47.215Z,21.60
2022-12-31T05:49:14.374Z,20.85
2022-12-31T05:51:41.461Z,22.33
2022-12-31T05:54:08.837Z,20.88
2022-12-31T05:56:37.053Z,24.27
2022-12-31T05:59:04.158Z,24.27
2022-12-31T06:01:31.601Z,24.15
2022-12-31T06:03:59.006Z,23.27
2022-12-31T06:06:26.179Z,21.58
2022-12-31T06:08:53.256Z,21.58
2022-12-31T06:11:20.670Z,20.65
2022-12-31T06:13:47.741Z,20.67
2022-12-31T06:16:14.893Z,24.70
2022-12-31T06:18:42.426Z,24.60
2022-12-31T06:21:09.632Z,18.50
2022-12-31T06:23:36.710Z,22.62
2022-12-31T06:26:04.712Z,20.85
2022-12-31T06:28:31.939Z,20.60
2022-12-31T06:31:03.640Z,20.50
2022-12-31T06:33:31.465Z,19.30
2022-12-31T06:36:00.370Z,18.83
2022-12-31T06:38:28.745Z,15.02
2022-12-31T06:40:56.210Z,22.73
2022-12-31T06:43:23.427Z,21.95
2022-12-31T06:45:50.536Z,19.70
2022-12-31T06:48:18.695Z,20.73
2022-12-31T06:50:49.665Z,21.10
2022-12-31T06:53:16.731Z,20.88
2022-12-31T06:55:44.440Z,20.52
2022-12-31T06:58:15.956Z,18.65
2022-12-31T07:00:52.631Z,19.10
2022-12-31T07:03:25.846Z,18.90
2022-12-31T07:06:10.003Z,18.27
2022-12-31T07:08:41.072Z,16.67
2022-12-31T07:11:24.732Z,15.68
2022-12-31T07:14:15.590Z,14.85
2022-12-31T07:17:02.460Z,20.12
2022-12-31T07:19:35.323Z,19.42
2022-12-31T07:22:03.469Z,17.20
2022-12-31T07:24:30.777Z,17.65
2022-12-31T07:27:00.753Z,17.42
2022-12-31T07:29:52.612Z,16.98
2022-12-31T07:32:46.932Z,17.05
2022-12-31T07:35:23.252Z,17.52
2022-12-31T07:38:10.163Z,17.48
2022-12-31T07:40:53.102Z,18.80
2022-12-31T07:43:31.233Z,19.27
2022-12-31T07:46:22.759Z,20.25
2022-12-31T07:48:50.132Z,23.20
2022-12-31T07:51:17.751Z,20.25
2022-12-31T07:53:44.833Z,20.02
2022-12-31T07:56:11.894Z,21.25
2022-12-31T07:58:39.156Z,19.30
2022-12-31T08:01:11.360Z,20.73
2022-12-31T08:04:00.491Z,22.80
2022-12-31T08:06:36.665Z,18.12
2022-12-31T08:09:17.212Z,22.02
2022-12-31T08:11:53.106Z,19.87
2022-12-31T08:14:20.568Z,20.48
2022-12-31T08:16:47.922Z,22.40
2022-12-31T08:19:24.607Z,22.08
2022-12-31T08:22:05.863Z,20.40
2022-12-31T08:25:10.418Z,22.00
2022-12-31T08:27:42.018Z,23.75
2022-12-31T08:30:12.654Z,23.17
2022-12-31T08:32:52.163Z,24.50
2022-12-31T08:35:25.956Z,20.95
2022-12-31T08:40:50.079Z,19.92
2022-12-31T08:43:33.385Z,21.73
2022-12-31T08:46:00.677Z,23.27
2022-12-31T08:48:34.733Z,21.92
2022-12-31T08:51:02.036Z,22.55
2022-12-31T08:53:29.610Z,21.35
2022-12-31T08:56:02.019Z,21.98
2022-12-31T08:58:40.554Z,21.92
2022-12-31T09:01:08.587Z,19.92
2022-12-31T09:03:48.198Z,23.67
2022-12-31T09:06:17.775Z,21.92
2022-12-31T09:08:51.848Z,24.33
2022-12-31T09:14:25.426Z,23.25
2022-12-31T09:17:29.825Z,23.98
2022-12-31T09:19:57.459Z,24.00
2022-12-31T09:22:24.656Z,22.90
2022-12-31T09:24:51.708Z,24.20
2022-12-31T09:27:27.903Z,21.10
2022-12-31T09:30:11.026Z,23.10
2022-12-31T09:33:00.384Z,21.87
2022-12-31T09:35:52.480Z,22.25
2022-12-31T09:38:45.641Z,21.27
2022-12-31T09:41:53.286Z,22.80
2022-12-31T09:44:32.575Z,24.33
2022-12-31T09:47:29.162Z,24.45
2022-12-31T09:49:56.357Z,20.67
2022-12-31T09:52:39.070Z,21.98
2022-12-31T09:55:13.650Z,19.90
2022-12-31T09:57:47.662Z,23.65
2022-12-31T10:00:25.634Z,24.10
2022-12-31T10:02:59.716Z,22.92
2022-12-31T10:05:38.856Z,23.92
2022-12-31T10:08:27.879Z,23.25
2022-12-31T10:10:59.028Z,22.73
2022-12-31T10:13:41.884Z,26.20
2022-12-31T10:16:16.437Z,27.92
2022-12-31T10:19:21.400Z,28.20
2022-12-31T10:22:18.999Z,27.60
2022-12-31T10:25:38.120Z,24.40
2022-12-31T10:28:19.445Z,23.75
2022-12-31T10:31:06.894Z,23.27
2022-12-31T10:33:55.402Z,23.38
2022-12-31T10:36:44.920Z,23.48
2022-12-31T10:39:24.268Z,23.65
2022-12-31T10:42:10.303Z,23.95
2022-12-31T10:44:49.582Z,24.25
2022-12-31T10:47:49.161Z,23.70
2022-12-31T10:50:28.261Z,21.48
2022-12-31T10:53:18.163Z,19.65
2022-12-31T10:56:07.436Z,21.37
2022-12-31T10:58:53.307Z,20.08
2022-12-31T11:01:35.080Z,20.20
2022-12-31T11:04:53.920Z,20.27
2022-12-31T11:07:55.850Z,20.50
2022-12-31T11:11:01.963Z,20.33
2022-12-31T11:13:28.954Z,18.92
2022-12-31T11:16:17.745Z,19.92
2022-12-31T11:18:59.540Z,21.02
2022-12-31T11:22:08.984Z,21.83
2022-12-31T11:25:11.451Z,19.35
2022-12-31T11:27:44.813Z,20.92
2022-12-31T11:30:42.214Z,21.73
2022-12-31T11:33:32.061Z,18.98
2022-12-31T11:36:33.444Z,20.02
2022-12-31T11:39:31.639Z,19.35
2022-12-31T11:42:21.829Z,18.40
2022-12-31T11:45:04.469Z,19.58
2022-12-31T11:51:01.249Z,18.73
2022-12-31T11:53:42.343Z,19.12
2022-12-31T11:56:16.257Z,18.90
2022-12-31T11:58:47.879Z,18.60
2022-12-31T12:01:32.511Z,17.48
2022-12-31T12:04:00.507Z,18.55
2022-12-31T12:06:30.817Z,21.00
2022-12-31T12:09:07.425Z,20.52
2022-12-31T12:11:38.353Z,19.80
2022-12-31T12:14:30.141Z,21.10
2022-12-31T12:17:04.448Z,21.77
2022-12-31T12:19:34.423Z,22.17
2022-12-31T12:22:23.121Z,21.50
2022-12-31T12:25:03.384Z,20.12
2022-12-31T12:27:33.588Z,18.83
2022-12-31T12:30:31.519Z,17.67
2022-12-31T12:33:00.826Z,17.02
2022-12-31T12:35:30.767Z,18.52
2022-12-31T12:38:06.459Z,16.90
2022-12-31T12:40:34.799Z,18.75
2022-12-31T12:43:03.231Z,20.30
2022-12-31T12:45:52.436Z,20.88
2022-12-31T12:48:41.103Z,18.83
2022-12-31T12:51:46.153Z,16.40
2022-12-31T12:54:28.137Z,16.58
2022-12-31T12:57:16.447Z,15.85
2022-12-31T13:00:01.750Z,18.40
2022-12-31T13:03:02.903Z,19.73
2022-12-31T13:06:04.441Z,19.58
2022-12-31T13:08:44.609Z,17.08
2022-12-31T13:11:27.340Z,16.83
2022-12-31T13:14:08.079Z,17.67
2022-12-31T13:17:00.567Z,16.85
2022-12-31T13:19:30.676Z,16.45
2022-12-31T13:22:03.089Z,18.12
2022-12-31T13:24:53.181Z,15.43
2022-12-31T13:27:35.792Z,14.90
2022-12-31T13:30:07.330Z,15.88
2022-12-31T13:32:45.385Z,16.00
2022-12-31T13:35:36.477Z,25.15
2022-12-31T13:38:07.203Z,17.65
2022-12-31T13:40:45.327Z,16.45
2022-12-31T13:43:19.956Z,16.55
2022-12-31T13:45:50.221Z,16.42
2022-12-31T13:48:21.967Z,16.27
2022-12-31T13:51:00.497Z,17.90
2022-12-31T13:53:34.096Z,16.70
2022-12-31T13:56:06.171Z,16.35
2022-12-31T13:58:37.956Z,17.37
2022-12-31T14:01:34.228Z,17.30
2022-12-31T14:04:24.952Z,18.37
2022-12-31T14:06:55.941Z,16.85
2022-12-31T14:09:25.724Z,17.73
2022-12-31T14:12:17.944Z,18.02
2022-12-31T14:15:23.150Z,19.92
2022-12-31T14:17:56.367Z,18.48
2022-12-31T14:20:33.011Z,19.55
2022-12-31T14:23:20.182Z,19.33
2022-12-31T14:26:05.927Z,19.83
2022-12-31T14:28:46.974Z,20.77
2022-12-31T14:31:29.311Z,20.05
2022-12-31T14:34:09.770Z,19.15
2022-12-31T14:36:58.940Z,19.35
2022-12-31T14:39:51.414Z,20.25
2022-12-31T14:42:30.192Z,19.20
2022-12-31T14:45:23.069Z,21.00
2022-12-31T14:47:55.482Z,19.37
2022-12-31T14:50:25.660Z,19.85
2022-12-31T14:52:53.872Z,34.47
2022-12-31T14:55:38.388Z,26.70
2022-12-31T14:58:39.353Z,25.83
2022-12-31T15:01:19.797Z,31.42
2022-12-31T15:03:47.215Z,31.02
2022-12-31T15:06:23.160Z,32.38
2022-12-31T15:09:11.807Z,32.88
2022-12-31T15:12:03.615Z,31.50
2022-12-31T15:14:45.599Z,30.75
2022-12-31T15:17:37.494Z,30.62
2022-12-31T15:20:32.427Z,30.35
2022-12-31T15:22:59.544Z,30.80
2022-12-31T15:25:40.357Z,31.37
2022-12-31T15:28:29.201Z,32.87
2022-12-31T15:31:04.261Z,34.30
2022-12-31T15:33:36.770Z,32.30
2022-12-31T15:36:19.759Z,30.70
2022-12-31T15:38:47.374Z,25.83
2022-12-31T15:41:24.663Z,23.48
2022-12-31T15:43:58.597Z,23.40
2022-12-31T15:46:29.574Z,26.73
2022-12-31T15:49:05.944Z,26.80
2022-12-31T15:51:56.488Z,21.67
2022-12-31T15:54:49.502Z,22.25
2022-12-31T15:57:26.301Z,21.62
2022-12-31T16:00:01.607Z,20.92
2022-12-31T16:02:29.089Z,23.45
2022-12-31T16:04:57.177Z,22.67
2022-12-31T16:07:24.933Z,20.25
2022-12-31T16:09:57.618Z,20.35
2022-12-31T16:12:33.202Z,21.23
2022-12-31T16:15:02.021Z,19.42
2022-12-31T16:17:30.540Z,20.40
2022-12-31T16:19:58.626Z,18.85
2022-12-31T16:22:29.557Z,20.42
2022-12-31T16:27:46.503Z,20.45
2022-12-31T16:30:33.249Z,18.40
2022-12-31T16:33:06.810Z,19.37
2022-12-31T16:35:36.599Z,21.35
2022-12-31T16:38:18.961Z,18.67
2022-12-31T16:41:01.647Z,17.25
2022-12-31T16:43:40.669Z,17.92
2022-12-31T16:46:30.427Z,17.12
2022-12-31T16:49:07.897Z,16.55
2022-12-31T16:51:37.069Z,14.57
2022-12-31T16:54:04.484Z,15.73
2022-12-31T16:56:37.286Z,15.75
2022-12-31T16:59:13.891Z,14.95
2022-12-31T17:01:42.576Z,13.82
2022-12-31T17:04:11.491Z,13.38
2022-12-31T17:06:38.670Z,12.45
2022-12-31T17:09:20.572Z,12.93
2022-12-31T17:11:54.653Z,13.55
2022-12-31T17:14:24.392Z,12.82
2022-12-31T17:17:08.294Z,14.00
2022-12-31T17:19:47.224Z,12.87
2022-12-31T17:22:36.918Z,13.18
2022-12-31T17:25:26.851Z,13.10
2022-12-31T17:27:58.203Z,13.57
2022-12-31T17:30:28.208Z,13.80
2022-12-31T17:33:21.604Z,13.27
2022-12-31T17:35:54.418Z,13.25
2022-12-31T17:38:21.691Z,12.43
2022-12-31T17:40:52.934Z,12.85
2022-12-31T17:43:23.234Z,12.63
2022-12-31T17:45:51.746Z,12.27
2022-12-31T17:48:19.900Z,12.00
2022-12-31T17:50:48.166Z,12.37
2022-12-31T17:53:17.121Z,11.98
2022-12-31T17:55:45.892Z,11.85
2022-12-31T17:58:42.412Z,12.27
2022-12-31T18:01:10.029Z,10.35
2022-12-31T18:03:37.645Z,11.12
2022-12-31T18:06:05.467Z,10.52
2022-12-31T18:08:32.577Z,10.63
2022-12-31T18:11:00.048Z,11.23
2022-12-31T18:13:27.529Z,10.55
2022-12-31T18:15:55.424Z,10.77
2022-12-31T18:18:28.388Z,10.57
2022-12-31T18:21:03.944Z,10.52
2022-12-31T18:23:35.276Z,11.68
2022-12-31T18:26:02.376Z,11.20
2022-12-31T18:28:29.480Z,12.18
2022-12-31T18:30:56.933Z,16.02
2022-12-31T18:33:25.748Z,23.15
2022-12-31T18:36:10.228Z,22.58
2022-12-31T18:38:38.115Z,20.92
2022-12-31T18:41:05.970Z,21.33
2022-12-31T18:43:34.972Z,20.55
2022-12-31T18:46:02.456Z,20.02
2022-12-31T18:48:29.581Z,22.65
2022-12-31T18:50:56.627Z,24.45
2022-12-31T18:53:24.390Z,23.70
2022-12-31T18:55:56.449Z,21.65
2022-12-31T18:58:24.052Z,27.45
2022-12-31T19:00:51.965Z,44.28
2022-12-31T19:03:22.013Z,20.75
2022-12-31T19:05:50.981Z,19.48
2022-12-31T19:08:21.747Z,18.33
2022-12-31T19:10:50.867Z,23.00
2022-12-31T19:13:19.643Z,27.77
2022-12-31T19:15:49.153Z,27.62
2022-12-31T19:18:16.511Z,29.42
2022-12-31T19:20:43.836Z,26.52
2022-12-31T19:23:22.343Z,31.37
2022-12-31T19:25:49.853Z,44.53
2022-12-31T19:28:24.878Z,32.97
2022-12-31T19:30:52.541Z,32.83
2022-12-31T19:33:19.924Z,38.58
2022-12-31T19:35:49.837Z,34.10
2022-12-31T19:38:23.485Z,30.85
2022-12-31T19:40:51.363Z,31.62
2022-12-31T19:43:20.359Z,25.80
2022-12-31T19:45:48.081Z,25.80
2022-12-31T19:48:17.598Z,26.52
2022-12-31T19:50:47.310Z,25.40
2022-12-31T19:53:20.283Z,24.90
2022-12-31T19:55:48.460Z,25.17
2022-12-31T19:58:27.590Z,23.12
2022-12-31T20:01:01.905Z,24.73
2022-12-31T20:03:32.688Z,22.83
2022-12-31T20:06:08.403Z,21.90
2022-12-31T20:08:37.011Z,22.75
2022-12-31T20:11:12.429Z,25.73
2022-12-31T20:13:40.790Z,26.30
2022-12-31T20:16:14.057Z,26.77
2022-12-31T20:18:42.125Z,27.33
2022-12-31T20:21:20.472Z,24.58
2022-12-31T20:23:49.078Z,24.48
2022-12-31T20:26:16.490Z,23.33
2022-12-31T20:28:43.480Z,23.95
2022-12-31T20:31:13.364Z,24.35
2022-12-31T20:33:40.995Z,24.35
2022-12-31T20:36:10.724Z,25.25
2022-12-31T20:38:38.331Z,27.70
2022-12-31T20:41:07.376Z,27.33
2022-12-31T20:43:35.588Z,25.02
2022-12-31T20:46:20.641Z,27.27
2022-12-31T20:48:48.588Z,27.95
2022-12-31T20:51:16.821Z,24.75
2022-12-31T20:53:52.145Z,24.52
2022-12-31T20:56:19.552Z,24.25
2022-12-31T20:58:46.819Z,21.70
2022-12-31T21:01:14.926Z,17.25
2022-12-31T21:06:31.880Z,19.27
2022-12-31T21:09:01.068Z,13.48
2022-12-31T21:11:46.634Z,11.75
2022-12-31T21:14:14.498Z,15.25
2022-12-31T21:16:41.579Z,13.05
2022-12-31T21:19:09.930Z,13.20
2022-12-31T21:21:37.440Z,12.25
2022-12-31T21:24:05.036Z,12.85
2022-12-31T21:26:32.433Z,13.35
2022-12-31T21:28:59.949Z,14.80
2022-12-31T21:31:27.086Z,13.02
2022-12-31T21:33:54.209Z,12.63
2022-12-31T21:36:21.608Z,14.73
2022-12-31T21:38:49.204Z,14.52
2022-12-31T21:41:35.417Z,14.73
2022-12-31T21:44:03.035Z,15.77
2022-12-31T21:46:30.310Z,15.05
2022-12-31T21:48:59.375Z,15.27
2022-12-31T21:51:27.447Z,14.48
2022-12-31T21:53:54.661Z,14.30
2022-12-31T21:56:22.586Z,15.35
2022-12-31T21:59:17.382Z,16.08
2022-12-31T22:02:03.157Z,16.42
2022-12-31T22:07:17.913Z,14.75
2022-12-31T22:09:45.264Z,14.32
2022-12-31T22:12:12.333Z,14.02
2022-12-31T22:14:39.466Z,14.77
2022-12-31T22:17:26.859Z,14.82
2022-12-31T22:20:25.179Z,14.40
2022-12-31T22:22:41.277Z,14.45
2022-12-31T22:25:08.825Z,13.65
2022-12-31T22:27:35.877Z,13.48
2022-12-31T22:30:03.460Z,15.57
2022-12-31T22:32:35.780Z,16.98
2022-12-31T22:35:03.285Z,16.62
2022-12-31T22:40:18.022Z,17.27
2022-12-31T22:42:45.153Z,17.45
2022-12-31T22:45:12.284Z,16.70
2022-12-31T22:47:39.673Z,16.67
2022-12-31T22:50:07.256Z,16.35
2022-12-31T22:52:34.341Z,15.70
2022-12-31T22:55:01.769Z,16.37
2022-12-31T22:57:28.853Z,15.38
2022-12-31T22:59:55.912Z,15.07
2022-12-31T23:02:23.278Z,14.80
2022-12-31T23:04:50.384Z,13.05
2022-12-31T23:07:17.423Z,12.20
2022-12-31T23:10:03.092Z,11.85
2022-12-31T23:12:30.187Z,10.10
2022-12-31T23:15:15.870Z,11.82
2022-12-31T23:18:01.790Z,11.30
2022-12-31T23:20:47.967Z,10.68
2022-12-31T23:23:16.390Z,10.23
2022-12-31T23:25:49.036Z,9.45
2022-12-31T23:28:19.471Z,9.50
2022-12-31T23:30:47.059Z,8.60
2022-12-31T23:33:25.094Z,9.07
2022-12-31T23:36:03.377Z,8.00
2022-12-31T23:38:30.418Z,8.43
2022-12-31T23:40:57.791Z,9.20
2022-12-31T23:43:24.864Z,10.38
2022-12-31T23:45:55.161Z,9.07
2022-12-31T23:48:22.497Z,10.80
2022-12-31T23:50:53.586Z,13.50
2022-12-31T23:53:22.869Z,13.38
2022-12-31T23:55:50.959Z,14.82
2022-12-31T23:58:18.069Z,15.85
